Time;durP1;ratioP1;P1;durP2;ratioP2;P2;SDS_P1;SDS_P2;PMS_P1;PMS_P2;Temp;Humidity;BMP_temperature;BMP_pressure;BME280_temperature;BME280_humidity;BME280_pressure;Samples;Min_cycle;Max_cycle;Signal;HPM_P1;HPM_P2
2022/03/29 00:02:02;;;;;;;13.87;10.20;;;12.10;69.10;;;;;;10442051;28;20217;-80
2022/03/29 00:07:06;;;;;;;12.50;10.57;;;12.10;69.70;;;;;;10461483;28;20591;-79
2022/03/29 00:12:10;;;;;;;9.97;8.97;;;12.00;69.80;;;;;;10478571;28;20229;-79
2022/03/29 00:17:12;;;;;;;13.20;10.00;;;12.00;69.50;;;;;;10442967;28;20642;-79
2022/03/29 00:22:14;;;;;;;12.37;10.50;;;12.00;67.70;;;;;;10480311;28;20196;-79
2022/03/29 00:27:17;;;;;;;11.70;9.20;;;11.90;70.20;;;;;;10462299;28;20567;-79
2022/03/29 00:32:20;;;;;;;10.87;8.63;;;11.90;69.20;;;;;;10475689;28;20306;-79
2022/03/29 00:37:22;;;;;;;11.93;9.70;;;11.90;69.90;;;;;;10448731;28;20205;-80
2022/03/29 00:42:25;;;;;;;14.13;10.57;;;11.90;71.00;;;;;;10464767;28;20188;-81
2022/03/29 00:47:27;;;;;;;8.87;7.47;;;11.90;71.10;;;;;;10485158;28;20196;-81
2022/03/29 00:52:32;;;;;;;14.10;9.27;;;11.90;70.70;;;;;;10460871;28;20252;-81
2022/03/29 00:57:36;;;;;;;14.27;11.17;;;11.80;71.40;;;;;;10461602;28;20216;-80
2022/03/29 01:02:38;;;;;;;10.50;9.10;;;11.80;72.20;;;;;;10438029;28;20205;-80
2022/03/29 01:07:41;;;;;;;10.33;9.23;;;11.80;73.00;;;;;;10401833;28;1121756;-81
2022/03/29 01:12:44;;;;;;;14.13;9.47;;;11.80;72.10;;;;;;10479838;28;20493;-79
2022/03/29 01:17:47;;;;;;;10.00;8.80;;;11.80;73.40;;;;;;10465793;28;20291;-80
2022/03/29 01:22:52;;;;;;;13.50;9.53;;;11.80;73.40;;;;;;10478002;28;20197;-79
2022/03/29 01:27:55;;;;;;;11.47;9.80;;;11.70;72.40;;;;;;10485908;28;20700;-79
2022/03/29 01:32:59;;;;;;;11.53;9.80;;;11.70;72.70;;;;;;10438985;28;20700;-79
2022/03/29 01:38:03;;;;;;;11.63;9.20;;;11.70;73.20;;;;;;10474770;28;20298;-80
2022/03/29 01:43:05;;;;;;;11.50;9.63;;;11.70;71.50;;;;;;10460486;28;20645;-81
2022/03/29 01:48:08;;;;;;;11.10;9.03;;;11.70;72.50;;;;;;10477433;28;20684;-80
2022/03/29 01:53:22;;;;;;;12.70;10.03;;;11.60;72.40;;;;;;10468343;28;20225;-79
2022/03/29 01:58:25;;;;;;;13.00;9.47;;;11.60;72.40;;;;;;10470055;28;20213;-81
2022/03/29 02:03:27;;;;;;;10.17;9.07;;;11.50;73.20;;;;;;10452011;28;20184;-81
2022/03/29 02:08:31;;;;;;;13.20;9.00;;;11.50;73.30;;;;;;10441371;28;20234;-80
2022/03/29 02:13:33;;;;;;;10.50;8.97;;;11.60;72.50;;;;;;10467224;28;20277;-80
2022/03/29 02:18:35;;;;;;;11.73;9.10;;;11.60;72.00;;;;;;10474560;28;20249;-80
2022/03/29 02:23:39;;;;;;;12.00;8.80;;;11.60;72.20;;;;;;10458965;28;20193;-80
2022/03/29 02:28:41;;;;;;;9.67;8.60;;;11.50;71.50;;;;;;10459067;28;20205;-80
2022/03/29 02:33:43;;;;;;;10.60;9.23;;;11.60;71.40;;;;;;10458064;28;20224;-80
2022/03/29 02:38:46;;;;;;;11.33;9.00;;;11.60;70.70;;;;;;10456033;28;20217;-81
2022/03/29 02:43:48;;;;;;;9.90;8.90;;;11.50;70.80;;;;;;10477018;28;20328;-81
2022/03/29 02:48:50;;;;;;;10.30;9.20;;;11.50;71.50;;;;;;10452142;28;20217;-81
2022/03/29 02:53:54;;;;;;;11.20;9.83;;;11.50;72.30;;;;;;10482264;28;20213;-81
2022/03/29 02:58:56;;;;;;;11.10;9.90;;;11.50;71.50;;;;;;10462162;28;20240;-80
2022/03/29 03:03:58;;;;;;;9.67;8.67;;;11.50;70.10;;;;;;10457694;28;20208;-80
2022/03/29 03:09:02;;;;;;;9.63;8.63;;;11.50;69.60;;;;;;10490194;22;20680;-85
2022/03/29 03:14:05;;;;;;;11.63;9.87;;;11.40;71.30;;;;;;10442174;28;20220;-86
2022/03/29 03:19:07;;;;;;;10.50;9.40;;;11.40;70.00;;;;;;10474236;28;20215;-83
2022/03/29 03:24:14;;;;;;;10.40;9.40;;;11.30;69.80;;;;;;10454318;28;20232;-83
2022/03/29 03:29:16;;;;;;;10.60;9.33;;;11.20;71.90;;;;;;10432594;28;20212;-86
2022/03/29 03:34:18;;;;;;;10.60;9.60;;;11.20;72.20;;;;;;10449522;28;20213;-85
2022/03/29 03:39:22;;;;;;;10.77;9.10;;;11.20;70.90;;;;;;10447491;28;20213;-83
2022/03/29 03:44:24;;;;;;;10.33;9.23;;;11.20;71.00;;;;;;10441927;28;20200;-86
2022/03/29 03:49:27;;;;;;;12.20;10.20;;;11.10;72.10;;;;;;10438168;28;20998;-84
2022/03/29 03:54:30;;;;;;;13.07;11.47;;;11.10;73.40;;;;;;10466214;28;20193;-84
2022/03/29 03:59:32;;;;;;;13.60;11.00;;;11.20;73.40;;;;;;10443966;28;20252;-83
2022/03/29 04:04:35;;;;;;;16.27;11.23;;;11.20;72.40;;;;;;10431476;28;20203;-84
2022/03/29 04:09:39;;;;;;;13.83;11.70;;;11.30;72.70;;;;;;10440510;28;20246;-83
2022/03/29 04:14:41;;;;;;;14.20;11.60;;;11.30;71.60;;;;;;10451174;28;20201;-83
2022/03/29 04:19:43;;;;;;;11.83;10.20;;;11.30;70.10;;;;;;10428607;28;20729;-83
2022/03/29 04:24:47;;;;;;;11.70;10.47;;;11.30;72.10;;;;;;10435361;28;20263;-83
2022/03/29 04:29:49;;;;;;;13.00;10.00;;;11.10;71.60;;;;;;10445124;28;20228;-83
2022/03/29 04:34:51;;;;;;;14.67;10.60;;;11.10;70.70;;;;;;10441125;28;20196;-83
2022/03/29 04:40:08;;;;;;;12.23;11.03;;;10.90;72.40;;;;;;10456689;28;20256;-85
2022/03/29 04:45:11;;;;;;;14.90;11.70;;;10.90;71.30;;;;;;10438247;28;20192;-86
2022/03/29 04:50:15;;;;;;;16.93;12.67;;;10.80;70.00;;;;;;10436975;28;20245;-86
2022/03/29 04:55:20;;;;;;;14.83;13.23;;;10.70;70.90;;;;;;10421912;28;20585;-86
2022/03/29 05:00:22;;;;;;;22.30;13.43;;;10.60;71.50;;;;;;10456994;28;20205;-84
2022/03/29 05:05:25;;;;;;;18.93;13.30;;;10.50;73.80;;;;;;10472263;28;20197;-84
2022/03/29 05:10:29;;;;;;;15.03;12.67;;;10.50;74.00;;;;;;10455350;28;20301;-85
2022/03/29 05:15:31;;;;;;;14.40;12.90;;;10.60;71.90;;;;;;10464997;28;20197;-84
2022/03/29 05:20:33;;;;;;;14.50;12.57;;;10.50;72.70;;;;;;10454855;28;20721;-84
2022/03/29 05:25:37;;;;;;;16.33;10.53;;;10.50;74.40;;;;;;10450033;28;20207;-86
2022/03/29 05:30:39;;;;;;;14.60;11.40;;;10.50;73.60;;;;;;10441822;28;20669;-86
2022/03/29 05:35:43;;;;;;;13.10;11.67;;;10.50;71.90;;;;;;10454311;28;20201;-86
2022/03/29 05:40:46;;;;;;;16.47;11.27;;;10.50;72.60;;;;;;10445224;28;20220;-86
2022/03/29 05:48:51;;;;;;;16.20;12.60;;;10.50;73.30;;;;;;10419649;28;20666;-86
2022/03/29 05:51:11;;;;;;;15.80;12.33;;;10.50;73.00;;;;;;10418427;28;20646;-86
2022/03/29 05:56:15;;;;;;;15.50;12.37;;;10.50;75.10;;;;;;10431764;28;20232;-87
2022/03/29 06:01:19;;;;;;;15.60;12.40;;;10.60;75.80;;;;;;10434984;28;20236;-85
2022/03/29 06:06:21;;;;;;;16.27;12.17;;;10.70;76.10;;;;;;10455600;28;20255;-85
2022/03/29 06:11:24;;;;;;;18.37;14.00;;;10.90;75.30;;;;;;10432259;28;20278;-85
2022/03/29 06:16:27;;;;;;;14.63;11.90;;;11.10;75.70;;;;;;10442319;28;20223;-84
2022/03/29 06:21:30;;;;;;;13.50;12.10;;;11.20;73.90;;;;;;10438934;28;20275;-87
2022/03/29 06:26:34;;;;;;;16.60;12.43;;;11.30;73.10;;;;;;10446511;28;20205;-84
2022/03/29 06:31:37;;;;;;;18.10;13.40;;;11.50;73.80;;;;;;10459311;28;20223;-84
2022/03/29 06:36:39;;;;;;;18.77;13.00;;;11.60;73.60;;;;;;10456404;28;20248;-84
2022/03/29 06:41:43;;;;;;;26.63;12.47;;;11.70;73.70;;;;;;10457373;28;20212;-85
2022/03/29 06:46:45;;;;;;;20.07;12.07;;;11.80;74.90;;;;;;10449290;28;20213;-85
2022/03/29 06:51:48;;;;;;;17.40;13.13;;;12.00;74.90;;;;;;10444230;28;20680;-85
2022/03/29 06:56:51;;;;;;;16.00;12.23;;;12.20;74.00;;;;;;10443664;28;20251;-85
2022/03/29 07:01:53;;;;;;;19.23;14.90;;;12.40;72.60;;;;;;10432827;28;20661;-85
2022/03/29 07:06:55;;;;;;;22.80;14.43;;;12.60;72.40;;;;;;10445911;28;20625;-84
2022/03/29 07:11:59;;;;;;;20.40;13.00;;;12.80;70.40;;;;;;10434092;28;20257;-85
2022/03/29 07:17:01;;;;;;;24.60;14.33;;;12.90;72.50;;;;;;10435875;28;20208;-85
2022/03/29 07:22:03;;;;;;;17.53;13.87;;;13.00;71.40;;;;;;10420862;28;20255;-84
2022/03/29 07:27:07;;;;;;;19.97;14.60;;;13.10;71.70;;;;;;10426343;28;20193;-84
2022/03/29 07:32:09;;;;;;;16.90;14.87;;;13.30;71.40;;;;;;10437913;28;20225;-85
2022/03/29 07:37:12;;;;;;;17.47;14.60;;;13.50;70.70;;;;;;10457888;28;20661;-84
2022/03/29 07:42:15;;;;;;;18.33;13.83;;;13.60;70.00;;;;;;10458251;28;20217;-84
2022/03/29 07:47:19;;;;;;;19.97;14.30;;;13.70;70.40;;;;;;10439010;28;20232;-86
2022/03/29 07:52:21;;;;;;;17.03;14.40;;;13.80;70.50;;;;;;10433580;28;20228;-85
2022/03/29 07:57:25;;;;;;;18.87;14.80;;;14.00;69.70;;;;;;10431192;28;20199;-85
2022/03/29 08:02:27;;;;;;;17.83;14.40;;;14.10;69.40;;;;;;10448576;28;20255;-85
2022/03/29 08:07:29;;;;;;;23.77;15.50;;;14.20;69.00;;;;;;10447424;28;20201;-86
2022/03/29 08:12:32;;;;;;;24.00;14.43;;;14.30;69.80;;;;;;10433347;28;20228;-86
2022/03/29 08:17:35;;;;;;;24.17;15.63;;;14.50;69.00;;;;;;10430332;28;20288;-85
2022/03/29 08:22:37;;;;;;;19.87;15.23;;;14.60;70.30;;;;;;10427631;28;20227;-84
2022/03/29 08:27:41;;;;;;;23.13;15.10;;;14.70;69.10;;;;;;10424763;28;20209;-84
2022/03/29 08:32:44;;;;;;;18.03;13.87;;;14.80;68.80;;;;;;10461659;28;20235;-84
2022/03/29 08:37:47;;;;;;;23.70;14.37;;;14.90;69.50;;;;;;10448414;28;20197;-84
2022/03/29 08:42:55;;;;;;;25.63;15.07;;;15.10;69.00;;;;;;10446745;28;20217;-84
2022/03/29 08:47:59;;;;;;;27.43;16.23;;;15.20;65.70;;;;;;10456362;28;20235;-84
2022/03/29 08:53:01;;;;;;;21.33;16.33;;;15.40;67.90;;;;;;10465788;28;20205;-85
2022/03/29 08:58:05;;;;;;;17.53;13.20;;;15.50;64.50;;;;;;10442761;28;20287;-85
2022/03/29 09:03:08;;;;;;;17.77;14.23;;;15.60;65.60;;;;;;10436747;28;20227;-85
2022/03/29 09:08:11;;;;;;;17.37;13.80;;;15.70;67.80;;;;;;10472116;28;20232;-83
2022/03/29 09:13:20;;;;;;;16.30;14.10;;;15.90;66.50;;;;;;10447642;28;20236;-83
2022/03/29 09:18:23;;;;;;;20.30;14.77;;;16.10;67.70;;;;;;10447415;28;20267;-83
2022/03/29 09:23:26;;;;;;;20.20;14.70;;;16.40;65.70;;;;;;10446682;28;20217;-83
2022/03/29 09:28:34;;;;;;;18.30;12.83;;;16.60;65.10;;;;;;10435810;28;20332;-83
2022/03/29 09:33:40;;;;;;;12.60;10.40;;;16.90;65.40;;;;;;10459738;28;20197;-83
2022/03/29 09:38:43;;;;;;;19.53;13.50;;;17.10;63.50;;;;;;10452226;28;20217;-83
2022/03/29 09:43:59;;;;;;;17.57;13.50;;;17.20;63.50;;;;;;10461991;28;20315;-83
2022/03/29 09:49:03;;;;;;;17.30;13.50;;;17.40;61.30;;;;;;10461865;28;20238;-83
2022/03/29 09:54:09;;;;;;;14.30;12.13;;;17.50;62.40;;;;;;10460564;28;20616;-84
2022/03/29 09:59:14;;;;;;;15.30;12.30;;;17.70;63.20;;;;;;10465988;28;20324;-83
2022/03/29 10:04:18;;;;;;;15.00;12.37;;;17.80;61.80;;;;;;10442585;28;20224;-83
2022/03/29 10:09:27;;;;;;;14.17;11.00;;;17.90;61.90;;;;;;10448514;28;20288;-83
2022/03/29 10:14:32;;;;;;;14.30;12.80;;;18.00;62.70;;;;;;10441721;28;20213;-83
2022/03/29 10:19:34;;;;;;;14.73;10.50;;;18.00;58.70;;;;;;10445270;28;20253;-83
2022/03/29 10:24:38;;;;;;;13.40;11.00;;;17.90;59.70;;;;;;10423437;28;20249;-83
2022/03/29 10:29:42;;;;;;;15.60;13.17;;;17.90;60.70;;;;;;10410191;28;20214;-83
2022/03/29 10:35:02;;;;;;;18.37;14.20;;;17.90;57.80;;;;;;10453612;28;20669;-84
2022/03/29 10:40:07;;;;;;;16.33;12.87;;;17.90;56.90;;;;;;10455701;28;20608;-83
2022/03/29 10:45:21;;;;;;;14.63;11.40;;;17.90;58.40;;;;;;10459985;28;20235;-83
2022/03/29 10:50:43;;;;;;;15.70;12.40;;;18.00;57.20;;;;;;10437767;28;20228;-83
2022/03/29 10:55:45;;;;;;;14.77;11.87;;;18.10;57.80;;;;;;10441281;28;20201;-83
2022/03/29 11:00:49;;;;;;;14.00;11.93;;;18.10;60.80;;;;;;10458405;28;20221;-83
2022/03/29 11:06:08;;;;;;;18.20;13.20;;;18.20;60.70;;;;;;10461425;28;20221;-83
2022/03/29 11:11:39;;;;;;;16.60;14.63;;;18.20;57.80;;;;;;10446660;28;20351;-83
2022/03/29 11:16:43;;;;;;;20.87;13.80;;;18.20;56.60;;;;;;10459189;28;20676;-83
2022/03/29 11:21:54;;;;;;;20.33;15.27;;;18.10;56.50;;;;;;10470419;28;20221;-83
2022/03/29 11:26:59;;;;;;;16.50;13.10;;;18.10;58.00;;;;;;10456247;28;20205;-85
2022/03/29 11:32:04;;;;;;;15.30;11.80;;;18.00;58.30;;;;;;10425405;28;20217;-84
2022/03/29 11:37:07;;;;;;;15.97;12.87;;;18.00;59.00;;;;;;10464148;28;20195;-84
2022/03/29 11:42:09;;;;;;;16.13;13.50;;;17.90;60.00;;;;;;10476761;28;20619;-83
2022/03/29 11:47:12;;;;;;;14.37;12.83;;;17.80;58.70;;;;;;10473695;28;20205;-84
2022/03/29 11:52:17;;;;;;;15.20;12.30;;;17.80;61.10;;;;;;10474165;28;20227;-84
2022/03/29 11:57:23;;;;;;;15.83;12.87;;;17.70;59.10;;;;;;10480382;28;20209;-83
2022/03/29 12:02:27;;;;;;;15.43;12.57;;;17.80;59.50;;;;;;10453536;28;20304;-83
2022/03/29 12:07:42;;;;;;;20.63;14.43;;;17.80;59.50;;;;;;10463239;28;20236;-83
2022/03/29 12:12:51;;;;;;;17.70;14.50;;;18.00;57.50;;;;;;10462963;28;20225;-84
2022/03/29 12:23:19;;;;;;;16.40;14.40;;;18.20;55.40;;;;;;10438104;28;20644;-84
2022/03/29 12:28:23;;;;;;;18.03;12.90;;;18.30;56.70;;;;;;10419645;28;20270;-83
2022/03/29 12:33:27;;;;;;;18.10;14.17;;;18.40;58.50;;;;;;10468593;28;20188;-84
2022/03/29 12:38:40;;;;;;;19.03;13.47;;;18.60;59.30;;;;;;10459718;28;20629;-84
2022/03/29 12:43:52;;;;;;;17.63;14.33;;;18.70;59.70;;;;;;10442745;28;20229;-84
2022/03/29 12:48:56;;;;;;;16.20;13.30;;;18.80;57.40;;;;;;10434137;28;20248;-83
2022/03/29 12:54:00;;;;;;;17.33;14.60;;;18.90;59.90;;;;;;10453024;28;20701;-83
2022/03/29 12:59:22;;;;;;;19.10;14.07;;;18.90;59.40;;;;;;10463843;28;20221;-83
2022/03/29 13:04:35;;;;;;;20.10;15.00;;;18.90;55.80;;;;;;10444783;28;20302;-83
2022/03/29 13:09:38;;;;;;;19.03;14.30;;;18.80;56.00;;;;;;10462249;28;20243;-84
2022/03/29 13:14:41;;;;;;;20.33;14.50;;;18.70;56.10;;;;;;10448181;28;20193;-84
2022/03/29 13:19:55;;;;;;;16.07;12.80;;;18.70;57.30;;;;;;10445990;28;20225;-83
2022/03/29 13:24:57;;;;;;;19.77;15.20;;;18.70;56.70;;;;;;10432794;28;20227;-84
2022/03/29 13:29:59;;;;;;;18.23;14.50;;;18.70;54.80;;;;;;10460083;28;20235;-83
2022/03/29 13:35:03;;;;;;;18.67;12.80;;;18.80;53.90;;;;;;10435412;28;20201;-84
2022/03/29 13:40:06;;;;;;;15.13;12.43;;;18.80;56.50;;;;;;10463327;28;20709;-84
2022/03/29 13:45:10;;;;;;;19.20;13.17;;;18.80;57.50;;;;;;10460845;28;20622;-83
2022/03/29 13:50:13;;;;;;;19.60;13.90;;;18.80;56.90;;;;;;10460043;28;20229;-83
2022/03/29 13:55:15;;;;;;;15.87;12.40;;;18.90;56.40;;;;;;10440678;28;20243;-84
2022/03/29 14:00:19;;;;;;;14.93;13.27;;;18.90;59.00;;;;;;10442411;28;20217;-83
2022/03/29 14:05:23;;;;;;;18.00;13.50;;;18.90;59.60;;;;;;10466562;28;20243;-85
2022/03/29 14:10:25;;;;;;;18.00;14.67;;;18.80;57.50;;;;;;10444650;28;20229;-83
2022/03/29 14:15:27;;;;;;;25.57;14.93;;;18.80;57.20;;;;;;10461833;28;20197;-84
2022/03/29 14:20:31;;;;;;;20.17;15.37;;;18.80;58.00;;;;;;10448649;28;20224;-84
2022/03/29 14:25:36;;;;;;;22.47;15.80;;;18.70;58.60;;;;;;10440088;28;20813;-84
2022/03/29 14:30:40;;;;;;;19.03;14.27;;;18.70;59.00;;;;;;10446186;28;20315;-84
2022/03/29 14:35:46;;;;;;;18.90;14.53;;;18.70;58.00;;;;;;10424325;28;20243;-84
2022/03/29 14:40:48;;;;;;;24.80;15.50;;;18.70;59.10;;;;;;10463149;28;20224;-83
2022/03/29 14:45:51;;;;;;;20.17;12.93;;;18.70;58.50;;;;;;10444685;28;20221;-84
2022/03/29 14:50:55;;;;;;;21.90;14.27;;;18.70;59.60;;;;;;10449435;28;20236;-84
2022/03/29 14:55:57;;;;;;;21.37;14.77;;;18.70;58.90;;;;;;10468352;28;20189;-83
2022/03/29 15:00:59;;;;;;;20.43;14.50;;;18.70;60.20;;;;;;10456697;28;20304;-83
2022/03/29 15:06:03;;;;;;;18.23;14.07;;;18.60;59.00;;;;;;10458094;28;20657;-83
2022/03/29 15:11:05;;;;;;;22.90;16.17;;;18.60;59.60;;;;;;10507200;22;20212;-80
2022/03/29 15:16:07;;;;;;;25.40;16.87;;;18.50;58.80;;;;;;10506911;28;20271;-80
2022/03/29 15:21:11;;;;;;;20.00;13.80;;;18.60;57.40;;;;;;10486100;28;20225;-80
2022/03/29 15:26:13;;;;;;;30.23;17.90;;;18.50;60.50;;;;;;10501794;28;20240;-80
2022/03/29 15:31:16;;;;;;;22.70;15.83;;;18.40;61.70;;;;;;10496385;28;20218;-81
2022/03/29 15:36:20;;;;;;;18.90;14.23;;;18.20;59.60;;;;;;10505523;28;20201;-79
2022/03/29 15:41:22;;;;;;;20.17;14.57;;;18.10;61.60;;;;;;10506980;28;20270;-81
2022/03/29 15:46:24;;;;;;;16.90;10.00;;;17.90;59.40;;;;;;10491958;28;20224;-80
2022/03/29 15:51:28;;;;;;;14.40;10.50;;;17.90;56.60;;;;;;10498246;28;20628;-80
2022/03/29 15:56:30;;;;;;;13.97;8.63;;;17.80;54.60;;;;;;10497407;28;20193;-81
2022/03/29 16:01:32;;;;;;;16.10;7.10;;;17.70;53.50;;;;;;10487101;28;20217;-81
2022/03/29 16:06:35;;;;;;;16.63;9.70;;;17.70;54.70;;;;;;10500015;28;20687;-80
2022/03/29 16:11:38;;;;;;;16.20;13.00;;;17.60;54.20;;;;;;10490054;28;20225;-79
2022/03/29 16:16:40;;;;;;;21.83;14.53;;;17.60;55.10;;;;;;10481739;28;20189;-80
2022/03/29 16:21:47;;;;;;;28.90;17.30;;;17.60;58.60;;;;;;10486039;28;20631;-80
2022/03/29 16:26:49;;;;;;;23.53;17.03;;;17.50;58.50;;;;;;10476580;28;20225;-80
2022/03/29 16:31:51;;;;;;;21.37;16.37;;;17.50;61.00;;;;;;10500287;28;20217;-80
2022/03/29 16:36:58;;;;;;;22.63;16.73;;;17.50;63.40;;;;;;10491485;28;20272;-79
2022/03/29 16:42:00;;;;;;;25.77;18.00;;;17.40;64.30;;;;;;10490002;28;20216;-79
2022/03/29 16:47:02;;;;;;;25.47;17.97;;;17.30;62.80;;;;;;10479932;28;20219;-80
2022/03/29 16:52:07;;;;;;;22.67;16.17;;;17.20;64.40;;;;;;10464825;28;20248;-80
2022/03/29 16:57:12;;;;;;;24.50;16.30;;;17.10;64.50;;;;;;10499695;28;20235;-81
2022/03/29 17:02:14;;;;;;;23.27;16.47;;;17.00;64.50;;;;;;10494402;28;20225;-81
2022/03/29 17:07:17;;;;;;;21.33;15.60;;;16.90;66.50;;;;;;10498323;28;20219;-81
2022/03/29 17:12:19;;;;;;;21.10;13.73;;;16.80;65.60;;;;;;10485238;28;20278;-80
2022/03/29 17:17:22;;;;;;;25.10;17.07;;;16.80;65.90;;;;;;10483567;28;20224;-80
2022/03/29 17:22:28;;;;;;;23.00;17.30;;;16.70;64.80;;;;;;10514842;28;20232;-80
2022/03/29 17:27:30;;;;;;;23.70;15.50;;;16.70;60.90;;;;;;10492858;28;20209;-80
2022/03/29 17:32:34;;;;;;;22.60;15.33;;;16.70;60.00;;;;;;10443977;28;20220;-80
2022/03/29 17:37:38;;;;;;;22.20;15.90;;;16.70;63.90;;;;;;10457686;28;20669;-81
2022/03/29 17:42:42;;;;;;;20.27;12.27;;;16.60;65.40;;;;;;10453052;28;20225;-80
2022/03/29 17:47:44;;;;;;;21.57;16.60;;;16.50;64.20;;;;;;10454409;28;20612;-81
2022/03/29 17:52:48;;;;;;;18.80;11.07;;;16.40;66.00;;;;;;10456182;28;20304;-81
2022/03/29 17:57:50;;;;;;;23.07;10.53;;;16.30;67.10;;;;;;10451866;28;20217;-81
2022/03/29 18:02:53;;;;;;;18.63;10.77;;;16.30;68.30;;;;;;10469917;28;20212;-80
2022/03/29 18:07:56;;;;;;;16.70;10.73;;;16.20;67.60;;;;;;10481699;28;20207;-80
2022/03/29 18:12:58;;;;;;;20.33;16.87;;;16.10;67.70;;;;;;10451670;28;20225;-80
2022/03/29 18:18:00;;;;;;;15.70;12.03;;;16.10;65.30;;;;;;10464858;28;20220;-80
2022/03/29 18:23:04;;;;;;;20.70;11.60;;;16.00;64.70;;;;;;10486236;28;20247;-79
2022/03/29 18:28:07;;;;;;;20.87;14.10;;;16.00;63.70;;;;;;10477869;28;20220;-80
2022/03/29 18:33:15;;;;;;;21.63;15.23;;;16.00;63.10;;;;;;10456085;28;20235;-80
2022/03/29 18:38:19;;;;;;;24.90;17.37;;;15.90;62.80;;;;;;10481355;28;20210;-80
2022/03/29 18:43:21;;;;;;;24.23;15.30;;;15.90;62.90;;;;;;10459492;28;20221;-80
2022/03/29 18:48:23;;;;;;;20.77;11.17;;;15.80;63.00;;;;;;10469416;28;20252;-79
2022/03/29 18:53:27;;;;;;;16.93;12.23;;;15.80;62.10;;;;;;10475398;28;20816;-79
2022/03/29 18:58:29;;;;;;;19.20;11.20;;;15.70;62.20;;;;;;10500119;28;20236;-80
2022/03/29 19:03:32;;;;;;;20.87;15.30;;;15.70;62.70;;;;;;10480379;28;20208;-80
2022/03/29 19:08:36;;;;;;;16.80;13.17;;;15.60;62.60;;;;;;10475185;28;20232;-80
2022/03/29 19:13:39;;;;;;;35.03;18.03;;;15.50;63.30;;;;;;10466889;28;20208;-80
2022/03/29 19:18:41;;;;;;;17.03;12.07;;;15.50;63.90;;;;;;10474716;28;20232;-80
2022/03/29 19:23:47;;;;;;;22.83;13.07;;;15.40;63.90;;;;;;10464751;28;20225;-80
2022/03/29 19:28:49;;;;;;;20.10;13.37;;;15.30;64.30;;;;;;10474830;28;20212;-80
2022/03/29 19:33:51;;;;;;;17.80;12.90;;;15.30;67.20;;;;;;10472581;28;20664;-80
2022/03/29 19:39:32;;;;;;;20.53;13.27;;;15.20;66.00;;;;;;10464722;28;20239;-81
2022/03/29 19:44:40;;;;;;;18.87;14.77;;;15.20;66.10;;;;;;10468422;28;20599;-80
2022/03/29 19:49:44;;;;;;;18.73;12.83;;;15.20;65.70;;;;;;10462167;28;20216;-79
2022/03/29 19:54:47;;;;;;;18.60;13.80;;;15.20;65.80;;;;;;10447351;28;20229;-79
2022/03/29 19:59:50;;;;;;;18.37;14.23;;;15.10;66.60;;;;;;10465032;28;20229;-80
2022/03/29 20:04:57;;;;;;;20.37;14.40;;;15.00;65.60;;;;;;10452976;28;20221;-80
2022/03/29 20:10:00;;;;;;;22.03;13.50;;;14.90;66.00;;;;;;10462081;28;20267;-79
2022/03/29 20:15:05;;;;;;;19.30;14.23;;;14.80;66.30;;;;;;10458526;28;20190;-80
2022/03/29 20:20:08;;;;;;;23.07;13.17;;;14.70;66.40;;;;;;10461473;28;20308;-80
2022/03/29 20:25:10;;;;;;;16.60;12.27;;;14.70;66.30;;;;;;10477997;28;20582;-82
2022/03/29 20:30:15;;;;;;;16.83;11.83;;;14.60;66.40;;;;;;10462234;28;20388;-79
2022/03/29 20:35:17;;;;;;;20.37;10.63;;;14.50;65.70;;;;;;10450034;28;20198;-80
2022/03/29 20:40:20;;;;;;;18.67;12.80;;;14.40;65.20;;;;;;10456960;28;20330;-80
2022/03/29 20:45:23;;;;;;;26.50;11.67;;;14.30;65.70;;;;;;10468672;28;20212;-81
2022/03/29 20:50:26;;;;;;;23.90;12.60;;;14.10;65.90;;;;;;10451839;28;20231;-80
2022/03/29 20:55:28;;;;;;;23.30;13.07;;;14.10;65.70;;;;;;10457410;28;20239;-79
2022/03/29 21:00:32;;;;;;;24.27;11.63;;;14.00;67.30;;;;;;10468937;28;20225;-81
2022/03/29 21:05:35;;;;;;;23.50;12.53;;;13.90;68.50;;;;;;10469581;28;20657;-81
2022/03/29 21:10:42;;;;;;;16.93;11.80;;;13.90;69.00;;;;;;10477816;22;20236;-82
2022/03/29 21:15:45;;;;;;;15.57;12.00;;;13.90;68.10;;;;;;10434423;28;20205;-79
2022/03/29 21:20:47;;;;;;;16.87;12.30;;;13.90;68.40;;;;;;10439348;28;20264;-79
2022/03/29 21:25:54;;;;;;;17.53;12.63;;;13.80;67.80;;;;;;10437800;28;20221;-81
2022/03/29 21:30:58;;;;;;;16.17;12.93;;;13.80;67.70;;;;;;10381439;28;20258;-81
2022/03/29 21:36:01;;;;;;;22.23;13.30;;;13.70;69.00;;;;;;10417614;28;20193;-81
2022/03/29 21:41:24;;;;;;;19.90;14.17;;;13.60;68.30;;;;;;10401084;28;20302;-78
2022/03/29 21:46:30;;;;;;;19.20;13.60;;;13.50;68.70;;;;;;10394366;28;20224;-80
2022/03/29 21:51:47;;;;;;;21.43;13.67;;;13.50;70.00;;;;;;10396610;28;20304;-81
2022/03/29 21:57:14;;;;;;;19.63;14.93;;;13.40;69.30;;;;;;10418177;28;20209;-77
2022/03/29 22:02:36;;;;;;;21.20;14.97;;;13.40;69.30;;;;;;10428250;28;20224;-76
2022/03/29 22:07:57;;;;;;;24.60;16.23;;;13.30;70.00;;;;;;10432295;28;20213;-79
2022/03/29 22:12:59;;;;;;;22.90;14.70;;;13.20;69.90;;;;;;10385427;28;20313;-78
2022/03/29 22:18:03;;;;;;;18.97;15.30;;;13.20;69.10;;;;;;10382413;28;20200;-81
2022/03/29 22:23:06;;;;;;;21.17;15.00;;;13.10;71.10;;;;;;10387851;28;20217;-80
2022/03/29 22:28:10;;;;;;;19.83;15.60;;;13.00;71.60;;;;;;10391441;28;20697;-80
2022/03/29 22:33:22;;;;;;;23.67;16.70;;;13.00;70.50;;;;;;10412119;28;20233;-80
2022/03/29 22:38:35;;;;;;;21.37;15.33;;;12.90;70.50;;;;;;10432595;28;20252;-81
2022/03/29 22:43:38;;;;;;;18.67;15.60;;;12.70;72.10;;;;;;10431671;28;20618;-81
2022/03/29 22:48:42;;;;;;;23.23;16.33;;;12.70;72.30;;;;;;10422372;28;20565;-80
2022/03/29 22:53:50;;;;;;;22.10;15.83;;;12.70;71.90;;;;;;10438940;28;20248;-80
2022/03/29 22:59:04;;;;;;;22.20;16.20;;;12.60;72.20;;;;;;10458984;28;20217;-80
2022/03/29 23:04:10;;;;;;;23.27;16.57;;;12.60;72.00;;;;;;10439425;28;20204;-79
2022/03/29 23:09:14;;;;;;;22.83;14.93;;;12.60;72.40;;;;;;10424820;28;20335;-79
2022/03/29 23:14:16;;;;;;;20.30;15.20;;;12.50;73.40;;;;;;10447942;28;20312;-80
2022/03/29 23:19:20;;;;;;;20.03;15.10;;;12.40;73.00;;;;;;10466256;28;20217;-80
2022/03/29 23:24:22;;;;;;;19.40;15.57;;;12.40;73.20;;;;;;10464409;28;20683;-80
2022/03/29 23:29:24;;;;;;;17.40;15.47;;;12.30;73.60;;;;;;10458830;28;20259;-80
2022/03/29 23:34:28;;;;;;;21.47;15.87;;;12.30;74.20;;;;;;10446586;28;20213;-81
2022/03/29 23:39:30;;;;;;;24.00;15.67;;;12.30;73.80;;;;;;10447764;28;20638;-78
2022/03/29 23:44:32;;;;;;;22.07;14.90;;;12.30;73.90;;;;;;10443176;28;20637;-78
2022/03/29 23:49:36;;;;;;;20.33;15.33;;;12.20;74.70;;;;;;10460675;28;20223;-78
2022/03/29 23:54:38;;;;;;;20.87;15.10;;;12.20;75.10;;;;;;10460737;28;20220;-78
2022/03/29 23:59:40;;;;;;;22.17;15.67;;;12.20;74.90;;;;;;10442290;28;20236;-78
